Time;durP1;ratioP1;P1;durP2;ratioP2;P2;SDS_P1;SDS_P2;PMS_P1;PMS_P2;Temp;Humidity;BMP_temperature;BMP_pressure;BME280_temperature;BME280_humidity;BME280_pressure;Samples;Min_cycle;Max_cycle;Signal;HPM_P1;HPM_P2
2021/09/12 00:00:02;;;;;;;5.03;1.73;;;;;;;;;;5041950;28;20025;-71
2021/09/12 00:02:29;;;;;;;2.42;1.33;;;;;;;;;;5038965;28;20033;-71
2021/09/12 00:04:56;;;;;;;2.17;1.40;;;;;;;;;;5034623;28;20044;-72
2021/09/12 00:07:23;;;;;;;1.67;1.23;;;;;;;;;;5038060;28;20026;-71
2021/09/12 00:09:51;;;;;;;2.65;1.40;;;;;;;;;;5038095;28;20061;-70
2021/09/12 00:12:18;;;;;;;5.22;1.58;;;;;;;;;;5031724;28;20030;-70
2021/09/12 00:14:45;;;;;;;2.55;1.40;;;;;;;;;;5031727;28;20032;-70
2021/09/12 00:17:12;;;;;;;3.70;1.20;;;;;;;;;;5031814;28;20039;-71
2021/09/12 00:19:39;;;;;;;3.85;1.80;;;;;;;;;;5044697;28;20034;-70
2021/09/12 00:22:06;;;;;;;3.97;1.40;;;;;;;;;;5040221;28;20026;-70
2021/09/12 00:24:34;;;;;;;2.17;1.30;;;;;;;;;;5031177;28;20112;-71
2021/09/12 00:27:01;;;;;;;1.50;1.23;;;;;;;;;;5033802;28;20040;-69
2021/09/12 00:29:28;;;;;;;3.42;1.30;;;;;;;;;;5034896;28;20030;-69
2021/09/12 00:31:55;;;;;;;3.72;1.30;;;;;;;;;;5029633;28;20434;-69
2021/09/12 00:34:22;;;;;;;1.98;1.27;;;;;;;;;;5037649;28;20037;-69
2021/09/12 00:36:49;;;;;;;2.78;1.38;;;;;;;;;;5030079;28;20382;-69
2021/09/12 00:39:17;;;;;;;1.88;1.10;;;;;;;;;;5037099;28;20041;-70
2021/09/12 00:41:44;;;;;;;2.38;1.25;;;;;;;;;;5029015;28;20021;-69
2021/09/12 00:44:12;;;;;;;4.35;1.10;;;;;;;;;;5029546;28;20525;-69
2021/09/12 00:46:40;;;;;;;2.42;1.30;;;;;;;;;;5036820;28;20022;-69
2021/09/12 00:49:07;;;;;;;1.88;1.25;;;;;;;;;;5048916;28;20022;-69
2021/09/12 00:51:36;;;;;;;1.92;1.10;;;;;;;;;;5041184;28;20033;-69
2021/09/12 00:54:08;;;;;;;1.52;0.93;;;;;;;;;;5037914;28;20029;-68
2021/09/12 00:56:42;;;;;;;2.05;1.20;;;;;;;;;;5036410;28;20064;-69
2021/09/12 00:59:13;;;;;;;3.35;1.50;;;;;;;;;;5035844;28;20033;-68
2021/09/12 01:01:41;;;;;;;2.20;1.25;;;;;;;;;;5039911;28;20638;-68
2021/09/12 01:04:09;;;;;;;6.93;1.75;;;;;;;;;;5050838;28;20036;-68
2021/09/12 01:06:36;;;;;;;1.90;1.15;;;;;;;;;;5044407;28;20020;-69
2021/09/12 01:09:04;;;;;;;11.77;1.95;;;;;;;;;;5039384;28;20381;-69
2021/09/12 01:11:31;;;;;;;2.55;0.90;;;;;;;;;;5037358;28;20045;-69
2021/09/12 01:13:58;;;;;;;1.42;1.13;;;;;;;;;;5033200;28;20513;-69
2021/09/12 01:16:25;;;;;;;2.08;0.98;;;;;;;;;;5040498;28;20044;-69
2021/09/12 01:18:53;;;;;;;5.00;1.05;;;;;;;;;;5035699;28;20371;-68
2021/09/12 01:21:23;;;;;;;2.15;1.05;;;;;;;;;;5034762;28;20033;-69
2021/09/12 01:23:50;;;;;;;3.13;1.25;;;;;;;;;;5033425;28;20064;-69
2021/09/12 01:26:22;;;;;;;1.73;1.55;;;;;;;;;;5037396;28;20029;-68
2021/09/12 01:28:50;;;;;;;1.77;1.02;;;;;;;;;;5040432;28;20028;-69
2021/09/12 01:31:35;;;;;;;1.98;1.13;;;;;;;;;;5040727;28;20048;-68
2021/09/12 01:34:02;;;;;;;2.30;0.98;;;;;;;;;;5038882;28;20456;-68
2021/09/12 01:36:29;;;;;;;3.05;1.15;;;;;;;;;;5033759;28;20478;-69
2021/09/12 01:38:56;;;;;;;2.28;1.10;;;;;;;;;;5033678;28;20053;-68
2021/09/12 01:41:24;;;;;;;1.42;0.80;;;;;;;;;;5039495;28;20470;-69
2021/09/12 01:43:51;;;;;;;1.30;1.00;;;;;;;;;;5048470;28;20029;-69
2021/09/12 01:46:18;;;;;;;1.45;0.70;;;;;;;;;;5037809;28;20571;-69
2021/09/12 01:48:46;;;;;;;1.80;0.90;;;;;;;;;;5036544;28;20037;-69
2021/09/12 01:51:13;;;;;;;2.72;1.02;;;;;;;;;;5039957;28;20377;-68
2021/09/12 01:53:40;;;;;;;3.70;0.73;;;;;;;;;;5040712;28;20091;-68
2021/09/12 01:56:08;;;;;;;2.38;0.65;;;;;;;;;;5035606;28;20478;-68
2021/09/12 01:58:35;;;;;;;2.40;0.80;;;;;;;;;;5039249;28;20035;-69
2021/09/12 02:01:02;;;;;;;1.40;0.80;;;;;;;;;;5048309;28;20151;-69
2021/09/12 02:03:29;;;;;;;1.58;0.77;;;;;;;;;;5035170;28;20029;-69
2021/09/12 02:05:56;;;;;;;2.05;0.95;;;;;;;;;;5038490;28;20017;-69
2021/09/12 02:08:23;;;;;;;2.00;0.60;;;;;;;;;;5033945;28;20021;-69
2021/09/12 02:10:51;;;;;;;1.70;0.63;;;;;;;;;;5038627;28;20116;-69
2021/09/12 02:13:18;;;;;;;1.75;0.77;;;;;;;;;;5032856;28;20068;-70
2021/09/12 02:15:45;;;;;;;3.03;0.85;;;;;;;;;;5034353;28;20021;-69
2021/09/12 02:18:13;;;;;;;2.47;0.90;;;;;;;;;;5036594;28;20096;-69
2021/09/12 02:20:40;;;;;;;6.13;1.02;;;;;;;;;;5048278;28;20405;-68
2021/09/12 02:23:07;;;;;;;9.13;1.20;;;;;;;;;;5039356;28;20033;-68
2021/09/12 02:25:35;;;;;;;5.72;0.80;;;;;;;;;;5044921;28;20115;-68
2021/09/12 02:28:03;;;;;;;4.18;0.68;;;;;;;;;;5036830;28;20482;-69
2021/09/12 02:30:30;;;;;;;2.90;0.50;;;;;;;;;;5039580;28;20017;-68
2021/09/12 02:32:57;;;;;;;4.63;0.70;;;;;;;;;;5035913;28;20037;-68
2021/09/12 02:35:24;;;;;;;1.10;0.50;;;;;;;;;;5040651;28;20023;-69
2021/09/12 02:37:52;;;;;;;3.08;0.57;;;;;;;;;;5043835;28;20045;-70
2021/09/12 02:40:20;;;;;;;5.13;0.70;;;;;;;;;;5032475;28;20048;-68
2021/09/12 02:42:47;;;;;;;6.97;1.30;;;;;;;;;;5036169;28;20017;-68
2021/09/12 02:45:14;;;;;;;1.45;0.50;;;;;;;;;;5041646;28;20489;-70
2021/09/12 02:47:41;;;;;;;8.93;0.65;;;;;;;;;;5037130;28;20032;-68
2021/09/12 02:50:09;;;;;;;4.18;0.60;;;;;;;;;;5038652;28;20017;-69
2021/09/12 02:52:36;;;;;;;6.30;0.63;;;;;;;;;;5039041;28;20551;-68
2021/09/12 02:55:07;;;;;;;5.05;0.50;;;;;;;;;;5031128;28;20037;-69
2021/09/12 02:57:34;;;;;;;4.65;0.93;;;;;;;;;;5033539;28;20880;-69
2021/09/12 03:00:01;;;;;;;3.47;0.70;;;;;;;;;;5035537;28;20374;-69
2021/09/12 03:02:28;;;;;;;4.82;0.50;;;;;;;;;;5030974;28;20021;-69
2021/09/12 03:04:55;;;;;;;1.45;0.50;;;;;;;;;;5035499;28;20057;-69
2021/09/12 03:07:22;;;;;;;1.38;0.55;;;;;;;;;;5030693;28;20120;-67
2021/09/12 03:09:49;;;;;;;3.90;0.63;;;;;;;;;;5031381;28;20382;-66
2021/09/12 03:12:16;;;;;;;4.95;0.93;;;;;;;;;;5034595;28;20025;-70
2021/09/12 03:14:44;;;;;;;3.08;0.77;;;;;;;;;;5038329;28;20060;-67
2021/09/12 03:17:11;;;;;;;8.13;0.80;;;;;;;;;;5034291;28;20634;-68
2021/09/12 03:19:38;;;;;;;1.25;0.40;;;;;;;;;;5030851;28;20442;-68
2021/09/12 03:22:06;;;;;;;1.77;0.55;;;;;;;;;;5032625;28;20021;-68
2021/09/12 03:24:33;;;;;;;7.85;1.15;;;;;;;;;;5033579;28;20029;-68
2021/09/12 03:27:00;;;;;;;5.78;0.52;;;;;;;;;;5030871;28;20108;-69
2021/09/12 03:29:27;;;;;;;3.38;0.50;;;;;;;;;;5033716;28;20042;-69
2021/09/12 03:31:54;;;;;;;2.33;0.50;;;;;;;;;;5033118;28;20029;-69
2021/09/12 03:34:22;;;;;;;7.38;0.68;;;;;;;;;;5030902;28;20081;-69
2021/09/12 03:36:49;;;;;;;2.28;0.75;;;;;;;;;;5030668;28;20117;-69
2021/09/12 03:39:16;;;;;;;1.38;0.50;;;;;;;;;;5034792;28;20072;-68
2021/09/12 03:41:43;;;;;;;1.15;0.50;;;;;;;;;;5039034;28;20028;-70
2021/09/12 03:44:10;;;;;;;1.00;0.57;;;;;;;;;;5043356;28;20029;-69
2021/09/12 03:46:37;;;;;;;4.53;0.50;;;;;;;;;;5032600;28;20037;-70
2021/09/12 03:49:04;;;;;;;7.03;0.70;;;;;;;;;;5033247;28;20083;-69
2021/09/12 03:51:31;;;;;;;4.75;0.70;;;;;;;;;;5030437;28;20018;-69
2021/09/12 03:53:58;;;;;;;2.00;0.50;;;;;;;;;;5034612;28;20076;-68
2021/09/12 03:56:26;;;;;;;4.07;0.57;;;;;;;;;;5032229;28;20033;-69
2021/09/12 03:58:53;;;;;;;2.42;0.57;;;;;;;;;;5042203;28;20114;-68
2021/09/12 04:01:20;;;;;;;1.20;0.47;;;;;;;;;;5041436;28;20017;-68
2021/09/12 04:03:47;;;;;;;1.80;0.47;;;;;;;;;;5031643;28;20053;-67
2021/09/12 04:06:14;;;;;;;3.92;0.70;;;;;;;;;;5034464;28;20009;-69
2021/09/12 04:08:41;;;;;;;3.88;0.80;;;;;;;;;;5051151;28;20025;-68
2021/09/12 04:11:08;;;;;;;2.17;0.52;;;;;;;;;;5037958;28;20120;-68
2021/09/12 04:13:35;;;;;;;2.72;0.40;;;;;;;;;;5031772;28;20037;-69
2021/09/12 04:16:03;;;;;;;2.08;0.50;;;;;;;;;;5033785;28;20037;-69
2021/09/12 04:18:30;;;;;;;3.95;0.80;;;;;;;;;;5031105;28;20037;-69
2021/09/12 04:20:57;;;;;;;3.63;0.60;;;;;;;;;;5036208;28;20044;-69
2021/09/12 04:23:24;;;;;;;2.92;0.68;;;;;;;;;;5032940;28;20040;-68
2021/09/12 04:25:51;;;;;;;3.92;0.50;;;;;;;;;;5038120;28;20417;-69
2021/09/12 04:28:18;;;;;;;2.10;0.70;;;;;;;;;;5031778;28;20032;-68
2021/09/12 04:30:45;;;;;;;5.57;0.70;;;;;;;;;;5046730;28;20033;-69
2021/09/12 04:33:13;;;;;;;4.90;0.77;;;;;;;;;;5038995;28;20108;-67
2021/09/12 04:35:40;;;;;;;2.45;0.68;;;;;;;;;;5038906;28;20021;-67
2021/09/12 04:38:07;;;;;;;4.25;0.63;;;;;;;;;;5035343;28;20100;-69
2021/09/12 04:40:34;;;;;;;2.22;0.52;;;;;;;;;;5044860;28;20078;-68
2021/09/12 04:43:01;;;;;;;3.17;0.40;;;;;;;;;;5038075;28;20108;-68
2021/09/12 04:45:28;;;;;;;3.10;0.60;;;;;;;;;;5035563;28;20474;-68
2021/09/12 04:47:55;;;;;;;1.88;0.52;;;;;;;;;;5050791;28;20029;-67
2021/09/12 04:50:22;;;;;;;3.47;0.60;;;;;;;;;;5038760;28;20028;-69
2021/09/12 04:52:50;;;;;;;2.60;0.70;;;;;;;;;;5051312;28;20497;-68
2021/09/12 04:55:17;;;;;;;6.63;0.63;;;;;;;;;;5039096;28;20050;-69
2021/09/12 04:57:44;;;;;;;6.20;1.52;;;;;;;;;;5045530;28;20024;-68
2021/09/12 05:00:12;;;;;;;3.35;0.60;;;;;;;;;;5037201;28;20032;-67
2021/09/12 05:02:39;;;;;;;3.33;0.55;;;;;;;;;;5034645;28;20026;-68
2021/09/12 05:05:07;;;;;;;5.07;0.50;;;;;;;;;;5034529;28;20394;-69
2021/09/12 05:07:34;;;;;;;2.50;1.00;;;;;;;;;;5034403;28;20487;-66
2021/09/12 05:10:01;;;;;;;2.63;0.55;;;;;;;;;;5034536;28;20155;-67
2021/09/12 05:12:28;;;;;;;4.43;0.60;;;;;;;;;;5033271;28;20038;-68
2021/09/12 05:14:56;;;;;;;3.85;0.65;;;;;;;;;;5045225;28;20047;-67
2021/09/12 05:17:24;;;;;;;1.55;0.68;;;;;;;;;;5040285;28;20373;-67
2021/09/12 05:19:51;;;;;;;2.00;0.60;;;;;;;;;;5036747;28;20501;-67
2021/09/12 05:22:18;;;;;;;3.85;1.75;;;;;;;;;;5044276;28;20114;-69
2021/09/12 05:24:45;;;;;;;1.15;0.70;;;;;;;;;;5032843;28;20033;-68
2021/09/12 05:27:13;;;;;;;1.75;0.68;;;;;;;;;;5035936;28;20148;-69
2021/09/12 05:29:40;;;;;;;1.33;0.60;;;;;;;;;;5034437;28;20102;-67
2021/09/12 05:32:07;;;;;;;1.45;0.52;;;;;;;;;;5033834;28;20033;-68
2021/09/12 05:34:34;;;;;;;9.38;1.77;;;;;;;;;;5032974;28;20052;-67
2021/09/12 05:37:01;;;;;;;3.22;0.88;;;;;;;;;;5043686;28;20033;-67
2021/09/12 05:39:28;;;;;;;3.95;0.63;;;;;;;;;;5053421;28;20033;-68
2021/09/12 05:41:55;;;;;;;3.50;0.70;;;;;;;;;;5042819;28;20068;-68
2021/09/12 05:44:23;;;;;;;3.63;0.70;;;;;;;;;;5038625;28;20067;-68
2021/09/12 05:46:52;;;;;;;4.05;0.52;;;;;;;;;;5042968;28;20025;-69
2021/09/12 05:49:19;;;;;;;4.07;0.60;;;;;;;;;;5034036;28;20451;-68
2021/09/12 05:51:47;;;;;;;3.22;0.77;;;;;;;;;;5033614;28;20100;-68
2021/09/12 05:54:14;;;;;;;3.25;0.60;;;;;;;;;;5041843;28;20082;-68
2021/09/12 05:56:41;;;;;;;2.72;0.60;;;;;;;;;;5040201;28;20023;-68
2021/09/12 05:59:08;;;;;;;2.88;1.33;;;;;;;;;;5036073;28;20032;-67
2021/09/12 06:01:36;;;;;;;1.92;0.70;;;;;;;;;;5047573;28;20112;-68
2021/09/12 06:04:03;;;;;;;4.93;0.60;;;;;;;;;;5048508;28;20029;-68
2021/09/12 06:06:30;;;;;;;2.33;0.60;;;;;;;;;;5045878;28;20018;-67
2021/09/12 06:08:57;;;;;;;1.05;0.52;;;;;;;;;;5033838;28;20433;-68
2021/09/12 06:11:25;;;;;;;4.20;0.80;;;;;;;;;;5040248;28;20039;-68
2021/09/12 06:13:52;;;;;;;4.18;0.70;;;;;;;;;;5051501;28;20060;-69
2021/09/12 06:16:19;;;;;;;3.20;0.70;;;;;;;;;;5046068;28;20509;-68
2021/09/12 06:18:46;;;;;;;2.72;1.05;;;;;;;;;;5033080;28;20051;-68
2021/09/12 06:21:13;;;;;;;4.22;0.90;;;;;;;;;;5032772;28;20477;-68
2021/09/12 06:23:41;;;;;;;3.33;0.55;;;;;;;;;;5033329;28;20025;-67
2021/09/12 06:26:08;;;;;;;3.80;1.23;;;;;;;;;;5035193;28;20474;-67
2021/09/12 06:28:35;;;;;;;3.78;0.80;;;;;;;;;;5053261;28;20105;-68
2021/09/12 06:31:02;;;;;;;3.88;1.00;;;;;;;;;;5044610;28;20668;-68
2021/09/12 06:33:29;;;;;;;3.70;0.70;;;;;;;;;;5031434;28;20045;-68
2021/09/12 06:35:56;;;;;;;5.00;0.55;;;;;;;;;;5033690;28;20017;-67
2021/09/12 06:38:24;;;;;;;8.02;0.70;;;;;;;;;;5032253;28;20566;-68
2021/09/12 06:40:51;;;;;;;2.35;1.08;;;;;;;;;;5036494;28;20498;-67
2021/09/12 06:43:18;;;;;;;3.80;0.68;;;;;;;;;;5037442;28;20030;-68
2021/09/12 06:45:46;;;;;;;7.32;1.27;;;;;;;;;;5033567;28;20056;-67
2021/09/12 06:48:13;;;;;;;6.18;0.98;;;;;;;;;;5041289;28;20035;-68
2021/09/12 06:50:41;;;;;;;2.70;0.80;;;;;;;;;;5039843;28;20032;-68
2021/09/12 06:53:08;;;;;;;6.07;0.90;;;;;;;;;;5032252;28;20084;-69
2021/09/12 06:55:35;;;;;;;2.88;0.90;;;;;;;;;;5039433;28;20044;-69
2021/09/12 06:58:02;;;;;;;3.35;0.60;;;;;;;;;;5033296;28;20032;-70
2021/09/12 07:00:33;;;;;;;1.85;1.13;;;;;;;;;;5032819;28;20029;-70
2021/09/12 07:03:00;;;;;;;6.80;1.15;;;;;;;;;;5038791;28;20025;-71
2021/09/12 07:05:27;;;;;;;3.33;0.90;;;;;;;;;;5033559;28;20037;-71
2021/09/12 07:07:54;;;;;;;5.88;0.63;;;;;;;;;;5033713;28;20101;-72
2021/09/12 07:10:22;;;;;;;5.45;0.95;;;;;;;;;;5031381;28;20033;-72
2021/09/12 07:12:49;;;;;;;3.38;0.90;;;;;;;;;;5032236;28;20028;-71
2021/09/12 07:15:16;;;;;;;2.55;0.80;;;;;;;;;;5033213;28;20108;-73
2021/09/12 07:17:43;;;;;;;3.88;0.60;;;;;;;;;;5032583;28;20021;-72
2021/09/12 07:20:11;;;;;;;3.90;0.98;;;;;;;;;;5032483;28;20032;-73
2021/09/12 07:22:38;;;;;;;5.45;1.40;;;;;;;;;;5036664;28;20028;-71
2021/09/12 07:25:05;;;;;;;3.30;0.90;;;;;;;;;;5032036;28;20045;-73
2021/09/12 07:27:33;;;;;;;2.85;0.60;;;;;;;;;;5032527;28;20402;-72
2021/09/12 07:30:00;;;;;;;3.97;1.05;;;;;;;;;;5030739;28;20036;-73
2021/09/12 07:32:27;;;;;;;6.47;1.48;;;;;;;;;;5034938;28;20009;-73
2021/09/12 07:34:54;;;;;;;4.15;1.23;;;;;;;;;;5038535;28;20037;-72
2021/09/12 07:37:21;;;;;;;3.28;1.20;;;;;;;;;;5033857;28;20049;-73
2021/09/12 07:39:48;;;;;;;4.05;1.42;;;;;;;;;;5038431;28;20504;-72
2021/09/12 07:42:15;;;;;;;5.90;1.30;;;;;;;;;;5036458;28;20029;-72
2021/09/12 07:44:42;;;;;;;5.60;1.50;;;;;;;;;;5032055;28;20025;-72
2021/09/12 07:47:10;;;;;;;4.75;1.50;;;;;;;;;;5032140;28;20116;-72
2021/09/12 07:49:37;;;;;;;4.97;1.90;;;;;;;;;;5036158;28;20022;-71
2021/09/12 07:52:04;;;;;;;8.43;1.83;;;;;;;;;;5031968;28;20104;-70
2021/09/12 07:54:31;;;;;;;7.18;1.27;;;;;;;;;;5031972;28;20043;-70
2021/09/12 07:56:58;;;;;;;7.07;1.20;;;;;;;;;;5031828;28;20025;-70
2021/09/12 07:59:27;;;;;;;5.32;2.13;;;;;;;;;;5041747;28;20021;-72
2021/09/12 08:01:55;;;;;;;4.57;1.58;;;;;;;;;;5040008;28;20040;-71
2021/09/12 08:04:25;;;;;;;4.45;1.10;;;;;;;;;;5034563;28;20037;-70
2021/09/12 08:06:52;;;;;;;2.58;1.38;;;;;;;;;;5035868;28;20038;-70
2021/09/12 08:09:19;;;;;;;3.92;1.08;;;;;;;;;;5036595;28;20025;-70
2021/09/12 08:11:46;;;;;;;4.45;2.50;;;;;;;;;;5041279;28;20359;-71
2021/09/12 08:14:13;;;;;;;3.38;2.08;;;;;;;;;;5036505;28;20041;-70
2021/09/12 08:16:40;;;;;;;6.10;2.38;;;;;;;;;;5042675;28;20044;-71
2021/09/12 08:19:07;;;;;;;5.03;1.00;;;;;;;;;;5054757;28;20598;-70
2021/09/12 08:21:34;;;;;;;6.00;1.30;;;;;;;;;;5041129;28;20108;-70
2021/09/12 08:24:02;;;;;;;3.38;1.17;;;;;;;;;;5036003;28;20017;-69
2021/09/12 08:26:29;;;;;;;6.30;1.20;;;;;;;;;;5040980;28;20400;-69
2021/09/12 08:28:56;;;;;;;3.47;1.23;;;;;;;;;;5047993;28;20084;-69
2021/09/12 08:31:23;;;;;;;9.35;4.70;;;;;;;;;;5043478;28;20095;-70
2021/09/12 08:33:50;;;;;;;9.57;4.35;;;;;;;;;;5051308;28;20401;-70
2021/09/12 08:36:17;;;;;;;8.45;3.42;;;;;;;;;;5048893;28;20051;-69
2021/09/12 08:38:44;;;;;;;6.20;1.85;;;;;;;;;;5045411;28;20091;-70
2021/09/12 08:41:11;;;;;;;9.98;4.55;;;;;;;;;;5035600;28;20083;-71
2021/09/12 08:43:40;;;;;;;5.75;2.85;;;;;;;;;;5035205;28;20017;-71
2021/09/12 08:46:08;;;;;;;4.78;1.63;;;;;;;;;;5039376;28;20024;-70
2021/09/12 08:48:36;;;;;;;3.92;1.15;;;;;;;;;;5034674;28;20099;-71
2021/09/12 08:51:03;;;;;;;7.22;1.10;;;;;;;;;;5036408;28;20027;-71
2021/09/12 08:53:31;;;;;;;2.45;1.27;;;;;;;;;;5036087;28;20041;-70
2021/09/12 08:55:58;;;;;;;4.72;1.40;;;;;;;;;;5042778;28;20035;-70
2021/09/12 08:58:26;;;;;;;4.97;1.27;;;;;;;;;;5045912;28;20029;-70
2021/09/12 09:00:53;;;;;;;6.50;1.20;;;;;;;;;;5034987;28;20020;-70
2021/09/12 09:03:20;;;;;;;3.70;1.38;;;;;;;;;;5037432;28;20445;-71
2021/09/12 09:05:50;;;;;;;6.88;1.63;;;;;;;;;;5040826;28;20035;-70
2021/09/12 09:08:18;;;;;;;5.82;1.73;;;;;;;;;;5035148;28;20033;-71
2021/09/12 09:10:50;;;;;;;2.47;1.00;;;;;;;;;;5034923;28;20029;-71
2021/09/12 09:13:34;;;;;;;5.90;1.33;;;;;;;;;;5045067;28;20040;-69
2021/09/12 09:16:02;;;;;;;6.28;1.67;;;;;;;;;;5041007;28;20032;-70
2021/09/12 09:18:32;;;;;;;6.22;1.45;;;;;;;;;;5037422;28;20028;-71
2021/09/12 09:20:59;;;;;;;6.90;1.27;;;;;;;;;;5035478;28;20410;-70
2021/09/12 09:23:26;;;;;;;4.63;1.60;;;;;;;;;;5042153;28;20103;-70
2021/09/12 09:25:54;;;;;;;6.68;1.65;;;;;;;;;;5032858;28;20128;-71
2021/09/12 09:28:21;;;;;;;5.50;1.83;;;;;;;;;;5036227;28;20022;-71
2021/09/12 09:30:53;;;;;;;5.65;1.10;;;;;;;;;;5046171;28;20025;-71
2021/09/12 09:33:25;;;;;;;3.55;1.10;;;;;;;;;;5034066;28;20113;-71
2021/09/12 09:35:54;;;;;;;4.07;1.10;;;;;;;;;;5033634;28;20029;-70
2021/09/12 09:38:22;;;;;;;6.80;1.20;;;;;;;;;;5033038;28;20731;-70
2021/09/12 09:41:00;;;;;;;5.85;1.52;;;;;;;;;;5034061;28;20098;-70
2021/09/12 09:43:56;;;;;;;2.90;1.00;;;;;;;;;;5033459;28;20032;-70
2021/09/12 09:46:31;;;;;;;6.38;1.23;;;;;;;;;;5042953;28;20049;-70
2021/09/12 09:49:02;;;;;;;4.65;1.20;;;;;;;;;;5037925;28;20101;-70
2021/09/12 09:51:29;;;;;;;4.43;1.00;;;;;;;;;;5035487;28;20381;-70
2021/09/12 09:53:58;;;;;;;6.07;1.08;;;;;;;;;;5034749;28;20065;-71
2021/09/12 09:56:26;;;;;;;5.43;0.90;;;;;;;;;;5034717;28;20087;-71
2021/09/12 09:58:54;;;;;;;7.95;1.30;;;;;;;;;;5051406;28;20489;-70
2021/09/12 10:01:21;;;;;;;3.20;1.10;;;;;;;;;;5039781;28;20029;-70
2021/09/12 10:03:49;;;;;;;3.70;0.85;;;;;;;;;;5053588;28;20362;-70
2021/09/12 10:06:16;;;;;;;7.88;1.50;;;;;;;;;;5054801;28;20024;-70
2021/09/12 10:08:45;;;;;;;7.88;0.88;;;;;;;;;;5042493;28;20036;-70
2021/09/12 10:11:12;;;;;;;5.63;1.10;;;;;;;;;;5034698;28;20025;-71
2021/09/12 10:13:39;;;;;;;4.72;1.98;;;;;;;;;;5034981;28;20471;-70
2021/09/12 10:16:07;;;;;;;4.90;1.30;;;;;;;;;;5049139;28;20030;-71
2021/09/12 10:18:35;;;;;;;4.55;1.05;;;;;;;;;;5037973;28;20025;-70
2021/09/12 10:21:20;;;;;;;3.60;1.30;;;;;;;;;;5049538;28;20473;-70
2021/09/12 10:23:57;;;;;;;3.67;1.23;;;;;;;;;;5053722;28;20021;-70
2021/09/12 10:26:28;;;;;;;4.13;1.10;;;;;;;;;;5042352;28;20030;-71
2021/09/12 10:28:55;;;;;;;5.28;1.35;;;;;;;;;;5051515;28;20127;-70
2021/09/12 10:31:28;;;;;;;4.20;0.82;;;;;;;;;;5053085;28;20478;-70
2021/09/12 10:34:06;;;;;;;6.60;1.10;;;;;;;;;;5042666;28;20085;-70
2021/09/12 10:36:33;;;;;;;2.78;0.95;;;;;;;;;;5034090;28;20497;-71
2021/09/12 10:39:19;;;;;;;5.97;0.80;;;;;;;;;;5039319;28;20150;-70
2021/09/12 10:42:05;;;;;;;4.47;1.00;;;;;;;;;;5036084;28;20671;-70
2021/09/12 10:44:33;;;;;;;7.13;1.00;;;;;;;;;;5043788;28;20028;-70
2021/09/12 10:47:09;;;;;;;4.32;0.70;;;;;;;;;;5047324;28;20028;-71
2021/09/12 10:49:36;;;;;;;4.30;0.80;;;;;;;;;;5036020;28;20116;-71
2021/09/12 10:52:04;;;;;;;5.32;1.05;;;;;;;;;;5051803;28;20025;-70
2021/09/12 10:54:32;;;;;;;3.83;1.00;;;;;;;;;;5048060;28;20030;-76
2021/09/12 10:57:06;;;;;;;4.53;1.13;;;;;;;;;;5053200;28;20024;-71
2021/09/12 10:59:34;;;;;;;2.33;0.88;;;;;;;;;;5046088;28;20372;-70
2021/09/12 11:02:04;;;;;;;2.47;1.17;;;;;;;;;;5039918;28;20482;-70
2021/09/12 11:04:32;;;;;;;3.80;0.68;;;;;;;;;;5037048;28;20037;-70
2021/09/12 11:07:04;;;;;;;3.20;1.20;;;;;;;;;;5047405;28;20493;-71
2021/09/12 11:09:32;;;;;;;4.05;0.77;;;;;;;;;;5051494;28;20078;-71
2021/09/12 11:12:03;;;;;;;7.28;1.20;;;;;;;;;;5044519;28;20095;-71
2021/09/12 11:14:31;;;;;;;6.80;1.38;;;;;;;;;;5032854;28;20033;-71
2021/09/12 11:17:07;;;;;;;3.58;0.98;;;;;;;;;;5036469;28;20048;-71
2021/09/12 11:19:34;;;;;;;6.10;1.45;;;;;;;;;;5053187;28;20067;-71
2021/09/12 11:22:01;;;;;;;10.85;1.77;;;;;;;;;;5053090;28;20023;-72
2021/09/12 11:24:30;;;;;;;6.93;1.90;;;;;;;;;;5040687;28;20034;-72
2021/09/12 11:26:57;;;;;;;9.90;1.90;;;;;;;;;;5036868;28;20429;-72
2021/09/12 11:29:32;;;;;;;9.32;1.88;;;;;;;;;;5050812;28;20029;-72
2021/09/12 11:32:04;;;;;;;11.20;1.80;;;;;;;;;;5035266;28;20036;-71
2021/09/12 11:34:31;;;;;;;11.50;2.25;;;;;;;;;;5032338;28;20087;-72
2021/09/12 11:36:59;;;;;;;6.68;1.50;;;;;;;;;;5038216;28;20025;-71
2021/09/12 11:39:27;;;;;;;9.50;1.67;;;;;;;;;;5031543;28;20037;-71
2021/09/12 11:41:57;;;;;;;11.18;2.22;;;;;;;;;;5032773;28;20021;-72
2021/09/12 11:44:51;;;;;;;7.32;1.05;;;;;;;;;;5032275;28;20022;-70
2021/09/12 11:47:20;;;;;;;6.28;1.05;;;;;;;;;;5036454;28;20037;-71
2021/09/12 11:49:58;;;;;;;2.97;0.85;;;;;;;;;;5032763;28;20547;-71
2021/09/12 11:52:51;;;;;;;4.88;0.98;;;;;;;;;;5039372;28;20104;-71
2021/09/12 11:55:19;;;;;;;5.32;1.30;;;;;;;;;;5038037;28;20056;-71
2021/09/12 11:58:06;;;;;;;2.38;0.57;;;;;;;;;;5034931;28;20410;-71
2021/09/12 12:00:46;;;;;;;5.00;0.57;;;;;;;;;;5034404;28;20018;-71
2021/09/12 12:03:15;;;;;;;4.70;0.70;;;;;;;;;;5038896;28;20025;-70
2021/09/12 12:05:44;;;;;;;2.88;0.40;;;;;;;;;;5035911;28;20109;-71
2021/09/12 12:08:16;;;;;;;1.17;0.40;;;;;;;;;;5035167;28;20049;-71
2021/09/12 12:10:43;;;;;;;5.90;0.70;;;;;;;;;;5037405;28;20013;-69
2021/09/12 12:13:10;;;;;;;2.70;0.40;;;;;;;;;;5033449;28;20051;-70
2021/09/12 12:15:46;;;;;;;5.15;0.90;;;;;;;;;;5045642;28;20496;-73
2021/09/12 12:18:14;;;;;;;4.85;0.63;;;;;;;;;;5040742;28;20037;-72
2021/09/12 12:20:42;;;;;;;2.92;0.63;;;;;;;;;;5044038;28;20036;-73
2021/09/12 12:23:27;;;;;;;2.80;0.50;;;;;;;;;;5041213;28;20086;-72
2021/09/12 12:25:55;;;;;;;5.40;0.68;;;;;;;;;;5034173;28;20045;-72
2021/09/12 12:28:23;;;;;;;3.13;0.55;;;;;;;;;;5043129;28;20083;-72
2021/09/12 12:31:08;;;;;;;1.73;0.40;;;;;;;;;;5037355;28;20359;-71
2021/09/12 12:33:37;;;;;;;3.28;0.55;;;;;;;;;;5036060;28;20049;-72
2021/09/12 12:36:10;;;;;;;6.47;0.85;;;;;;;;;;5038940;28;20076;-72
2021/09/12 12:38:38;;;;;;;1.67;0.30;;;;;;;;;;5036867;28;20064;-70
2021/09/12 12:41:15;;;;;;;2.25;0.30;;;;;;;;;;5042876;28;20017;-71
2021/09/12 12:43:43;;;;;;;5.18;0.82;;;;;;;;;;5036430;28;20041;-70
2021/09/12 12:46:10;;;;;;;2.70;0.30;;;;;;;;;;5034541;28;20398;-71
2021/09/12 12:48:42;;;;;;;3.35;0.30;;;;;;;;;;5036103;28;20028;-72
2021/09/12 12:51:15;;;;;;;4.75;0.70;;;;;;;;;;5040090;28;20397;-72
2021/09/12 12:53:44;;;;;;;2.70;0.28;;;;;;;;;;5039827;28;20126;-72
2021/09/12 12:56:15;;;;;;;2.60;0.30;;;;;;;;;;5040419;28;20017;-72
2021/09/12 12:58:42;;;;;;;1.75;0.30;;;;;;;;;;5040354;28;20017;-70
2021/09/12 13:01:10;;;;;;;2.65;0.50;;;;;;;;;;5040380;28;20037;-72
2021/09/12 13:03:38;;;;;;;2.10;0.17;;;;;;;;;;5042303;28;20029;-70
2021/09/12 13:06:11;;;;;;;1.70;0.20;;;;;;;;;;5038635;28;20112;-71
2021/09/12 13:08:42;;;;;;;1.42;0.30;;;;;;;;;;5041987;28;20021;-72
2021/09/12 13:11:10;;;;;;;0.65;0.10;;;;;;;;;;5042309;28;20024;-72
2021/09/12 13:13:38;;;;;;;1.27;0.10;;;;;;;;;;5036969;28;20034;-71
2021/09/12 13:16:06;;;;;;;2.13;0.20;;;;;;;;;;5038872;28;20021;-71
2021/09/12 13:18:35;;;;;;;0.20;0.10;;;;;;;;;;5037167;28;20021;-71
2021/09/12 13:21:02;;;;;;;3.10;0.15;;;;;;;;;;5041941;28;20045;-73
2021/09/12 13:23:29;;;;;;;2.50;0.25;;;;;;;;;;5038874;28;20041;-71
2021/09/12 13:25:56;;;;;;;0.90;0.10;;;;;;;;;;5037559;28;20466;-70
2021/09/12 13:28:25;;;;;;;0.47;0.13;;;;;;;;;;5038733;28;20190;-71
2021/09/12 13:30:52;;;;;;;1.67;0.10;;;;;;;;;;5035386;28;20079;-70
2021/09/12 13:33:20;;;;;;;0.47;0.15;;;;;;;;;;5039544;28;20473;-72
2021/09/12 13:35:47;;;;;;;2.92;0.10;;;;;;;;;;5037635;28;20060;-72
2021/09/12 13:38:14;;;;;;;1.35;0.10;;;;;;;;;;5049015;28;20046;-70
2021/09/12 13:40:42;;;;;;;1.08;0.10;;;;;;;;;;5037553;28;20385;-72
2021/09/12 13:43:09;;;;;;;0.65;0.30;;;;;;;;;;5039058;28;20055;-71
2021/09/12 13:45:36;;;;;;;0.93;0.10;;;;;;;;;;5033746;28;20056;-73
2021/09/12 13:48:04;;;;;;;0.63;0.10;;;;;;;;;;5037816;28;20029;-73
2021/09/12 13:50:31;;;;;;;7.38;0.50;;;;;;;;;;5034295;28;20022;-70
2021/09/12 13:52:58;;;;;;;0.90;0.20;;;;;;;;;;5041101;28;20049;-71
2021/09/12 13:55:25;;;;;;;1.13;0.43;;;;;;;;;;5036011;28;20057;-72
2021/09/12 13:57:52;;;;;;;0.20;0.10;;;;;;;;;;5034127;28;20580;-72
2021/09/12 14:00:20;;;;;;;0.30;0.10;;;;;;;;;;5039990;28;20470;-73
2021/09/12 14:05:49;;;;;;;2.22;0.10;;;;;;;;;;5044789;28;20033;-70
2021/09/12 14:08:17;;;;;;;0.93;0.13;;;;;;;;;;5034733;28;20023;-74
2021/09/12 14:10:44;;;;;;;0.93;0.30;;;;;;;;;;5033204;28;20037;-72
2021/09/12 14:13:11;;;;;;;1.38;0.20;;;;;;;;;;5044349;28;20473;-71
2021/09/12 14:15:39;;;;;;;1.35;0.17;;;;;;;;;;5050068;28;20493;-73
2021/09/12 14:18:07;;;;;;;0.93;0.10;;;;;;;;;;5040351;28;20022;-73
2021/09/12 14:20:34;;;;;;;1.98;0.17;;;;;;;;;;5036813;28;20013;-73
2021/09/12 14:23:01;;;;;;;1.55;0.32;;;;;;;;;;5039080;28;20489;-73
2021/09/12 14:25:29;;;;;;;2.92;0.25;;;;;;;;;;5037657;28;20029;-73
2021/09/12 14:27:56;;;;;;;0.57;0.20;;;;;;;;;;5039790;28;20026;-73
2021/09/12 14:30:23;;;;;;;0.98;0.10;;;;;;;;;;5033586;28;20022;-73
2021/09/12 14:32:51;;;;;;;0.55;0.10;;;;;;;;;;5042156;28;20025;-72
2021/09/12 14:35:18;;;;;;;0.68;0.17;;;;;;;;;;5041610;28;20488;-75
2021/09/12 14:37:45;;;;;;;1.33;0.20;;;;;;;;;;5038170;28;20049;-73
2021/09/12 14:40:12;;;;;;;0.50;0.10;;;;;;;;;;5034047;28;21224;-73
2021/09/12 14:42:39;;;;;;;0.32;0.10;;;;;;;;;;5040584;28;20021;-72
2021/09/12 14:45:06;;;;;;;2.15;0.55;;;;;;;;;;5036988;28;20089;-71
2021/09/12 14:47:40;;;;;;;0.57;0.20;;;;;;;;;;5041046;28;20068;-72
2021/09/12 14:50:08;;;;;;;1.55;0.55;;;;;;;;;;5043790;28;20025;-71
2021/09/12 14:52:36;;;;;;;0.88;0.10;;;;;;;;;;5035594;28;20788;-72